Time;durP1;ratioP1;P1;durP2;ratioP2;P2;SDS_P1;SDS_P2;PMS_P1;PMS_P2;Temp;Humidity;BMP_temperature;BMP_pressure;BME280_temperature;BME280_humidity;BME280_pressure;Samples;Min_cycle;Max_cycle;Signal;HPM_P1;HPM_P2
2020/12/30 00:01:29;;;;;;;;;;;;;;;1.48;100.00;97978.72;5054713;28;20355;-75
2020/12/30 00:03:56;;;;;;;;;;;;;;;1.19;100.00;97966.84;5072807;28;20185;-75
2020/12/30 00:06:22;;;;;;;;;;;;;;;1.26;100.00;97975.13;5072726;28;20375;-75
2020/12/30 00:08:49;;;;;;;;;;;;;;;0.98;100.00;97954.97;5072394;28;19929;-75
2020/12/30 00:11:16;;;;;;;;;;;;;;;0.70;100.00;97949.34;5055144;28;19925;-75
2020/12/30 00:13:43;;;;;;;;;;;;;;;0.68;100.00;97957.19;5054961;28;19925;-75
2020/12/30 00:16:09;;;;;;;;;;;;;;;0.94;100.00;97968.69;5054897;28;20015;-76
2020/12/30 00:18:36;;;;;;;;;;;;;;;1.11;100.00;97976.25;5072872;28;19924;-75
2020/12/30 00:21:03;;;;;;;;;;;;;;;0.95;100.00;97967.56;5073363;28;19932;-75
2020/12/30 00:23:30;;;;;;;;;;;;;;;1.19;100.00;97977.84;5058312;28;19924;-75
2020/12/30 00:25:56;;;;;;;;;;;;;;;1.39;100.00;97975.56;5076594;28;20454;-75
2020/12/30 00:28:23;;;;;;;;;;;;;;;1.17;100.00;97974.69;5076293;28;20390;-75
2020/12/30 00:30:49;;;;;;;;;;;;;;;1.08;100.00;97966.03;5076254;28;19924;-75
2020/12/30 00:33:16;;;;;;;;;;;;;;;1.18;100.00;97968.00;5076169;28;19924;-75
2020/12/30 00:35:42;;;;;;;;;;;;;;;1.26;100.00;97964.13;5058416;28;19932;-75
2020/12/30 00:38:08;;;;;;;;;;;;;;;1.27;100.00;97967.66;5075832;28;19963;-75
2020/12/30 00:40:35;;;;;;;;;;;;;;;1.40;100.00;97961.41;5058472;28;19924;-75
2020/12/30 00:43:03;;;;;;;;;;;;;;;1.36;100.00;97960.59;5076006;28;19924;-76
2020/12/30 00:45:30;;;;;;;;;;;;;;;1.13;100.00;97945.59;5058093;28;20371;-75
2020/12/30 00:47:56;;;;;;;;;;;;;;;1.39;100.00;97959.81;5041673;28;19986;-75
2020/12/30 00:50:23;;;;;;;;;;;;;;;1.42;100.00;97958.25;5075861;28;19924;-76
2020/12/30 00:52:50;;;;;;;;;;;;;;;1.18;100.00;97946.00;5057737;28;19928;-75
2020/12/30 00:55:16;;;;;;;;;;;;;;;1.01;100.00;97926.69;5058069;28;19925;-75
2020/12/30 00:57:50;;;;;;;;;;;;;;;1.08;100.00;97943.22;5058293;28;19924;-75
2020/12/30 01:00:19;;;;;;;;;;;;;;;1.06;100.00;97946.34;5057962;28;19928;-76
2020/12/30 01:03:05;;;;;;;;;;;;;;;1.25;100.00;97954.28;5060815;28;19931;-75
2020/12/30 01:05:32;;;;;;;;;;;;;;;1.25;100.00;97959.00;5041178;28;19924;-76
2020/12/30 01:07:59;;;;;;;;;;;;;;;1.06;100.00;97951.09;5075424;28;19932;-76
2020/12/30 01:10:25;;;;;;;;;;;;;;;1.11;100.00;97951.50;5075533;28;19931;-76
2020/12/30 01:12:52;;;;;;;;;;;;;;;0.95;100.00;97951.06;5075669;28;19928;-76
2020/12/30 01:15:18;;;;;;;;;;;;;;;1.06;100.00;97960.09;5075543;28;19924;-75
2020/12/30 01:17:45;;;;;;;;;;;;;;;1.19;100.00;97964.09;5057557;28;19924;-75
2020/12/30 01:20:11;;;;;;;;;;;;;;;1.44;100.00;97984.22;5075036;28;19925;-75
2020/12/30 01:22:38;;;;;;;;;;;;;;;1.42;100.00;97985.78;5075416;28;19935;-75
2020/12/30 01:25:04;;;;;;;;;;;;;;;1.33;100.00;97975.13;5057445;28;19925;-76
2020/12/30 01:27:31;;;;;;;;;;;;;;;1.54;100.00;97986.22;5075387;28;20061;-75
2020/12/30 01:29:57;;;;;;;;;;;;;;;1.54;100.00;97979.91;5075200;28;20011;-75
2020/12/30 01:32:24;;;;;;;;;;;;;;;1.38;100.00;97980.25;5074240;28;20010;-75
2020/12/30 01:34:50;;;;;;;;;;;;;;;1.35;100.00;97978.28;5074638;28;19935;-75
2020/12/30 01:37:17;;;;;;;;;;;;;;;1.28;100.00;97986.53;5075243;28;20013;-75
2020/12/30 01:39:43;;;;;;;;;;;;;;;1.10;100.00;97990.38;5074959;28;20290;-75
2020/12/30 01:42:10;;;;;;;;;;;;;;;0.69;100.00;97967.00;5074914;28;19929;-75
2020/12/30 01:44:37;;;;;;;;;;;;;;;0.41;100.00;97970.38;5057100;28;19924;-75
2020/12/30 01:47:04;;;;;;;;;;;;;;;0.27;100.00;97975.00;5057098;28;20020;-75
2020/12/30 01:49:30;;;;;;;;;;;;;;;0.18;100.00;97989.06;5075002;28;19928;-75
2020/12/30 01:51:57;;;;;;;;;;;;;;;0.12;100.00;97993.34;5074631;28;19929;-75
2020/12/30 01:54:26;;;;;;;;;;;;;;;0.02;100.00;98016.00;5074658;28;19924;-75
2020/12/30 01:56:52;;;;;;;;;;;;;;;0.04;100.00;98024.66;5074883;28;19932;-75
2020/12/30 01:59:20;;;;;;;;;;;;;;;0.05;100.00;98044.69;5074814;28;19925;-75
2020/12/30 02:01:50;;;;;;;;;;;;;;;0.03;100.00;98058.00;5074255;28;19928;-75
2020/12/30 02:04:22;;;;;;;;;;;;;;;0.00;100.00;98065.03;5074321;28;19970;-75
2020/12/30 02:06:49;;;;;;;;;;;;;;;-0.03;100.00;98076.75;5056981;28;20429;-75
2020/12/30 02:09:16;;;;;;;;;;;;;;;0.00;100.00;98092.50;5074513;28;19924;-75
2020/12/30 02:11:42;;;;;;;;;;;;;;;0.05;100.00;98111.38;5074364;28;20302;-75
2020/12/30 02:14:13;;;;;;;;;;;;;;;0.10;100.00;98123.97;5074399;28;19924;-76
2020/12/30 02:16:53;;;;;;;;;;;;;;;0.13;100.00;98135.00;5056587;28;19925;-75
2020/12/30 02:19:20;;;;;;;;;;;;;;;0.05;100.00;98147.06;5073956;28;19928;-75
2020/12/30 02:21:47;;;;;;;;;;;;;;;-0.01;100.00;98156.81;5074276;28;19928;-75
2020/12/30 02:24:33;;;;;;;;;;;;;;;-0.01;100.00;98167.81;5074284;28;19924;-75
2020/12/30 02:27:01;;;;;;;;;;;;;;;0.02;100.00;98178.03;5074075;28;19931;-75
2020/12/30 02:29:28;;;;;;;;;;;;;;;0.02;100.00;98188.25;5073948;28;19925;-75
2020/12/30 02:31:55;;;;;;;;;;;;;;;0.02;100.00;98199.25;5073969;28;19925;-75
2020/12/30 02:34:22;;;;;;;;;;;;;;;-0.03;100.00;98214.88;5056070;28;19928;-75
2020/12/30 02:36:48;;;;;;;;;;;;;;;0.06;100.00;98236.56;5074148;28;20352;-75
2020/12/30 02:39:15;;;;;;;;;;;;;;;-0.01;100.00;98281.19;5074235;28;19994;-75
2020/12/30 02:41:41;;;;;;;;;;;;;;;0.09;100.00;98296.25;5073766;28;19935;-75
2020/12/30 02:44:08;;;;;;;;;;;;;;;0.09;100.00;98300.94;5073389;28;19925;-75
2020/12/30 02:46:34;;;;;;;;;;;;;;;0.23;100.00;98315.63;5039371;28;20350;-75
2020/12/30 02:49:01;;;;;;;;;;;;;;;0.21;100.00;98325.41;5073370;28;19934;-75
2020/12/30 02:51:27;;;;;;;;;;;;;;;0.16;100.00;98329.28;5055881;28;20355;-75
2020/12/30 02:53:53;;;;;;;;;;;;;;;0.06;100.00;98329.94;5055946;28;19925;-75
2020/12/30 02:56:20;;;;;;;;;;;;;;;0.11;100.00;98346.09;5073559;28;20019;-75
2020/12/30 02:58:47;;;;;;;;;;;;;;;0.10;100.00;98339.03;5073338;28;19924;-75
2020/12/30 03:01:14;;;;;;;;;;;;;;;0.13;100.00;98354.75;5055658;28;19924;-75
2020/12/30 03:03:42;;;;;;;;;;;;;;;0.08;100.00;98362.53;5055739;28;20277;-75
2020/12/30 03:06:09;;;;;;;;;;;;;;;0.11;100.00;98372.78;5055732;28;19974;-75
2020/12/30 03:08:36;;;;;;;;;;;;;;;0.12;100.00;98377.91;5038920;28;19986;-75
2020/12/30 03:11:03;;;;;;;;;;;;;;;0.07;100.00;98382.91;5073218;28;19932;-75
2020/12/30 03:13:30;;;;;;;;;;;;;;;0.20;100.00;98387.81;5055532;28;19928;-75
2020/12/30 03:15:56;;;;;;;;;;;;;;;0.15;100.00;98385.41;5055183;28;19925;-75
2020/12/30 03:18:23;;;;;;;;;;;;;;;0.24;100.00;98396.91;5073261;28;19924;-75
2020/12/30 03:20:49;;;;;;;;;;;;;;;0.28;100.00;98405.97;5073263;28;20306;-75
2020/12/30 03:23:15;;;;;;;;;;;;;;;0.23;100.00;98408.28;5073123;28;19925;-75
2020/12/30 03:25:43;;;;;;;;;;;;;;;0.26;100.00;98408.31;5055281;28;19925;-75
2020/12/30 03:28:09;;;;;;;;;;;;;;;0.30;100.00;98414.66;5055233;28;19924;-75
2020/12/30 03:30:36;;;;;;;;;;;;;;;0.33;100.00;98424.91;5054837;28;19925;-75
2020/12/30 03:33:02;;;;;;;;;;;;;;;0.25;100.00;98417.72;5073108;28;19970;-75
2020/12/30 03:35:29;;;;;;;;;;;;;;;0.26;100.00;98413.81;5073064;28;19924;-75
2020/12/30 03:37:56;;;;;;;;;;;;;;;0.24;100.00;98416.16;5073026;28;19929;-75
2020/12/30 03:40:22;;;;;;;;;;;;;;;0.14;100.00;98421.50;5072905;28;19924;-75
2020/12/30 03:42:48;;;;;;;;;;;;;;;0.21;100.00;98433.38;5072980;28;19931;-75
2020/12/30 03:45:15;;;;;;;;;;;;;;;0.17;100.00;98421.53;5072626;28;19925;-75
2020/12/30 03:47:41;;;;;;;;;;;;;;;0.18;100.00;98423.13;5072881;28;19928;-75
2020/12/30 03:50:08;;;;;;;;;;;;;;;0.19;100.00;98424.69;5072863;28;20380;-75
2020/12/30 03:52:34;;;;;;;;;;;;;;;0.24;100.00;98424.38;5055243;28;19986;-75
2020/12/30 03:55:01;;;;;;;;;;;;;;;0.13;100.00;98415.19;5072785;28;20042;-76
2020/12/30 03:57:27;;;;;;;;;;;;;;;0.24;100.00;98421.63;5075924;28;19928;-76
2020/12/30 03:59:54;;;;;;;;;;;;;;;0.22;100.00;98423.94;5076717;28;19932;-76
2020/12/30 04:02:20;;;;;;;;;;;;;;;0.22;100.00;98429.44;5076811;28;20003;-76
2020/12/30 04:04:47;;;;;;;;;;;;;;;0.25;100.00;98431.47;5059107;28;19924;-76
2020/12/30 04:07:13;;;;;;;;;;;;;;;0.33;100.00;98430.41;5042184;28;19924;-76
2020/12/30 04:09:39;;;;;;;;;;;;;;;0.38;100.00;98432.81;5076586;28;19924;-76
2020/12/30 04:12:06;;;;;;;;;;;;;;;0.32;100.00;98431.53;5076602;28;20348;-76
2020/12/30 04:14:34;;;;;;;;;;;;;;;0.29;100.00;98432.28;5076321;28;19925;-76
2020/12/30 04:17:01;;;;;;;;;;;;;;;0.22;100.00;98429.44;5076613;28;19982;-76
2020/12/30 04:19:27;;;;;;;;;;;;;;;0.24;100.00;98435.38;5076695;28;20130;-76
2020/12/30 04:21:54;;;;;;;;;;;;;;;0.16;100.00;98430.94;5076304;28;19963;-76
2020/12/30 04:24:20;;;;;;;;;;;;;;;0.25;100.00;98438.91;5058741;28;19924;-76
2020/12/30 04:26:47;;;;;;;;;;;;;;;0.11;100.00;98441.47;5076382;28;19924;-76
2020/12/30 04:29:13;;;;;;;;;;;;;;;0.08;100.00;98426.47;5075983;28;19994;-76
2020/12/30 04:31:40;;;;;;;;;;;;;;;0.03;100.00;98430.34;5058582;28;19931;-76
2020/12/30 04:34:07;;;;;;;;;;;;;;;0.07;100.00;98433.16;5076267;28;19924;-76
2020/12/30 04:36:33;;;;;;;;;;;;;;;0.13;100.00;98439.13;5076076;28;19930;-76
2020/12/30 04:39:00;;;;;;;;;;;;;;;0.19;100.00;98440.38;5076043;28;19925;-76
2020/12/30 04:41:33;;;;;;;;;;;;;;;0.17;100.00;98442.72;5076122;28;19924;-76
2020/12/30 04:44:01;;;;;;;;;;;;;;;0.19;100.00;98449.44;5075878;28;20279;-76
2020/12/30 04:46:28;;;;;;;;;;;;;;;0.23;100.00;98458.50;5076231;28;20268;-76
2020/12/30 04:48:56;;;;;;;;;;;;;;;0.23;100.00;98447.50;5041416;28;19936;-76
2020/12/30 04:51:23;;;;;;;;;;;;;;;0.18;100.00;98450.59;5075798;28;19954;-76
2020/12/30 04:53:52;;;;;;;;;;;;;;;0.20;100.00;98447.47;5075945;28;19924;-76
2020/12/30 04:56:32;;;;;;;;;;;;;;;0.19;100.00;98446.69;5041859;28;20374;-76
2020/12/30 04:58:59;;;;;;;;;;;;;;;0.04;100.00;98447.63;5075537;28;19925;-76
2020/12/30 05:01:27;;;;;;;;;;;;;;;-0.07;100.00;98439.22;5075479;28;19925;-76
2020/12/30 05:03:53;;;;;;;;;;;;;;;-0.06;100.00;98442.75;5075765;28;19925;-76
2020/12/30 05:06:21;;;;;;;;;;;;;;;-0.10;100.00;98439.16;5075596;28;19931;-76
2020/12/30 05:08:53;;;;;;;;;;;;;;;-0.15;100.00;98442.22;5057516;28;19947;-76
2020/12/30 05:11:21;;;;;;;;;;;;;;;-0.11;100.00;98451.31;5075558;28;19936;-76
2020/12/30 05:13:47;;;;;;;;;;;;;;;-0.06;100.00;98448.22;5075190;28;20337;-76
2020/12/30 05:16:14;;;;;;;;;;;;;;;-0.11;100.00;98443.06;5075723;28;20460;-76
2020/12/30 05:18:41;;;;;;;;;;;;;;;-0.15;100.00;98445.75;5057938;28;20301;-76
2020/12/30 05:21:08;;;;;;;;;;;;;;;-0.18;100.00;98442.94;5057678;28;19947;-76
2020/12/30 05:23:35;;;;;;;;;;;;;;;-0.24;100.00;98441.66;5075514;28;19925;-76
2020/12/30 05:26:02;;;;;;;;;;;;;;;-0.27;100.00;98439.66;5057538;28;20299;-76
2020/12/30 05:28:28;;;;;;;;;;;;;;;-0.26;100.00;98433.03;5057334;28;20261;-76
2020/12/30 05:30:55;;;;;;;;;;;;;;;-0.26;100.00;98427.53;5057322;28;20415;-76
2020/12/30 05:33:22;;;;;;;;;;;;;;;-0.24;100.00;98431.50;5040747;28;20288;-76
2020/12/30 05:35:48;;;;;;;;;;;;;;;-0.22;100.00;98431.91;5057111;28;19924;-76
2020/12/30 05:38:26;;;;;;;;;;;;;;;-0.11;100.00;98437.59;5075082;28;19924;-76
2020/12/30 05:40:52;;;;;;;;;;;;;;;-0.15;100.00;98417.50;5057080;28;20346;-76
2020/12/30 05:43:19;;;;;;;;;;;;;;;-0.08;100.00;98436.84;5057178;28;20380;-76
2020/12/30 05:45:46;;;;;;;;;;;;;;;-0.05;100.00;98450.59;5075166;28;19925;-76
2020/12/30 05:48:13;;;;;;;;;;;;;;;-0.14;100.00;98449.31;5074735;28;19928;-76
2020/12/30 05:50:50;;;;;;;;;;;;;;;-0.25;100.00;98443.63;5075418;28;19924;-76
2020/12/30 05:53:17;;;;;;;;;;;;;;;-0.22;100.00;98459.38;5074897;28;19924;-76
2020/12/30 05:55:47;;;;;;;;;;;;;;;0.13;100.00;98466.59;5074341;28;19928;-76
2020/12/30 05:58:15;;;;;;;;;;;;;;;0.37;100.00;98479.91;5074601;28;19925;-75
2020/12/30 06:00:42;;;;;;;;;;;;;;;0.33;100.00;98485.38;5074692;28;19929;-76
2020/12/30 06:03:12;;;;;;;;;;;;;;;0.38;100.00;98493.28;5074622;28;20628;-76
2020/12/30 06:05:38;;;;;;;;;;;;;;;0.57;100.00;98497.88;5074597;28;19939;-76
2020/12/30 06:08:05;;;;;;;;;;;;;;;0.61;100.00;98507.75;5074269;28;20310;-76
2020/12/30 06:10:32;;;;;;;;;;;;;;;0.63;100.00;98505.44;5056479;28;19932;-76
2020/12/30 06:13:00;;;;;;;;;;;;;;;0.65;100.00;98511.34;5056677;28;19925;-76
2020/12/30 06:15:30;;;;;;;;;;;;;;;0.67;100.00;98514.50;5056438;28;20383;-76
2020/12/30 06:18:01;;;;;;;;;;;;;;;0.74;100.00;98522.88;5074281;28;19954;-76
2020/12/30 06:20:32;;;;;;;;;;;;;;;0.77;100.00;98526.84;5055674;28;19925;-76
2020/12/30 06:23:03;;;;;;;;;;;;;;;0.75;100.00;98529.16;5074155;28;20439;-76
2020/12/30 06:25:31;;;;;;;;;;;;;;;0.80;100.00;98540.63;5073894;28;20392;-76
2020/12/30 06:28:05;;;;;;;;;;;;;;;0.80;100.00;98534.34;5056246;28;19925;-76
2020/12/30 06:30:33;;;;;;;;;;;;;;;0.83;100.00;98539.09;5056180;28;19960;-76
2020/12/30 06:33:00;;;;;;;;;;;;;;;0.79;100.00;98544.53;5074083;28;20298;-76
2020/12/30 06:35:28;;;;;;;;;;;;;;;0.93;100.00;98553.00;5073825;28;19925;-76
2020/12/30 06:37:54;;;;;;;;;;;;;;;0.84;100.00;98548.91;5073905;28;19931;-76
2020/12/30 06:40:22;;;;;;;;;;;;;;;0.83;100.00;98556.41;5073442;28;19925;-76
2020/12/30 06:42:55;;;;;;;;;;;;;;;0.84;100.00;98552.47;5056216;28;19925;-76
2020/12/30 06:45:40;;;;;;;;;;;;;;;0.82;100.00;98557.53;5055919;28;19933;-76
2020/12/30 06:48:06;;;;;;;;;;;;;;;0.84;100.00;98557.97;5073846;28;20540;-76
2020/12/30 06:50:33;;;;;;;;;;;;;;;0.86;100.00;98566.66;5055731;28;20501;-76
2020/12/30 06:53:18;;;;;;;;;;;;;;;0.86;100.00;98563.91;5073521;28;19929;-75
2020/12/30 06:55:45;;;;;;;;;;;;;;;0.89;100.00;98578.88;5073623;28;19924;-76
2020/12/30 06:58:31;;;;;;;;;;;;;;;0.96;100.00;98579.75;5074079;28;20429;-75
2020/12/30 07:00:58;;;;;;;;;;;;;;;0.96;100.00;98588.00;5062950;28;20031;-76
2020/12/30 07:03:30;;;;;;;;;;;;;;;0.91;100.00;98593.03;5068140;28;19932;-76
2020/12/30 07:06:17;;;;;;;;;;;;;;;1.07;100.00;98602.72;5033927;28;19924;-76
2020/12/30 07:08:44;;;;;;;;;;;;;;;1.04;100.00;98603.47;5064874;28;19924;-77
2020/12/30 07:11:10;;;;;;;;;;;;;;;1.00;100.00;98608.09;5050755;28;20368;-77
2020/12/30 07:13:40;;;;;;;;;;;;;;;0.99;100.00;98605.72;5067642;28;19932;-77
2020/12/30 07:16:27;;;;;;;;;;;;;;;0.92;100.00;98606.44;5068029;28;19924;-75
2020/12/30 07:18:54;;;;;;;;;;;;;;;0.86;100.00;98599.66;5067216;28;19931;-75
2020/12/30 07:21:22;;;;;;;;;;;;;;;0.77;100.00;98584.59;5067729;28;19925;-77
2020/12/30 07:23:49;;;;;;;;;;;;;;;0.79;100.00;98585.00;5068652;28;19931;-77
2020/12/30 07:26:16;;;;;;;;;;;;;;;0.76;100.00;98580.25;5068650;28;19925;-77
2020/12/30 07:28:44;;;;;;;;;;;;;;;0.72;100.00;98580.19;5068735;28;19925;-77
2020/12/30 07:31:12;;;;;;;;;;;;;;;0.74;100.00;98577.06;5034350;28;19982;-77
2020/12/30 07:33:41;;;;;;;;;;;;;;;0.71;100.00;98581.34;5068382;28;19925;-77
2020/12/30 07:36:08;;;;;;;;;;;;;;;0.80;100.00;98592.09;5068484;28;19959;-77
2020/12/30 07:38:36;;;;;;;;;;;;;;;0.75;100.00;98584.16;5068935;28;19932;-77
2020/12/30 07:41:07;;;;;;;;;;;;;;;0.79;100.00;98585.78;5070207;28;19936;-77
2020/12/30 07:43:45;;;;;;;;;;;;;;;0.79;100.00;98585.00;5072487;28;19924;-77
2020/12/30 07:46:16;;;;;;;;;;;;;;;0.70;100.00;98582.50;5072742;28;20031;-77
2020/12/30 07:48:43;;;;;;;;;;;;;;;0.76;100.00;98591.25;5038672;28;19931;-77
2020/12/30 07:51:09;;;;;;;;;;;;;;;0.73;100.00;98581.78;5072827;28;20019;-77
2020/12/30 07:53:36;;;;;;;;;;;;;;;0.79;100.00;98585.00;5072817;28;19931;-76
2020/12/30 07:56:02;;;;;;;;;;;;;;;0.65;100.00;98579.28;5072688;28;19971;-76
2020/12/30 07:58:29;;;;;;;;;;;;;;;0.64;100.00;98574.94;5055095;28;19982;-76
2020/12/30 08:00:55;;;;;;;;;;;;;;;0.60;100.00;98580.41;5072680;28;20357;-76
2020/12/30 08:03:22;;;;;;;;;;;;;;;0.59;100.00;98583.53;5072742;28;19935;-76
2020/12/30 08:05:49;;;;;;;;;;;;;;;0.57;100.00;98583.09;5072720;28;19924;-76
2020/12/30 08:08:16;;;;;;;;;;;;;;;0.54;100.00;98584.63;5072676;28;19978;-76
2020/12/30 08:10:43;;;;;;;;;;;;;;;0.61;100.00;98584.72;5072728;28;20550;-76
2020/12/30 08:13:11;;;;;;;;;;;;;;;0.50;100.00;98575.50;5072695;28;19932;-76
2020/12/30 08:15:53;;;;;;;;;;;;;;;0.49;100.00;98579.44;5072601;28;20417;-75
2020/12/30 08:18:19;;;;;;;;;;;;;;;0.53;100.00;98587.75;5072711;28;19925;-75
2020/12/30 08:20:45;;;;;;;;;;;;;;;0.41;100.00;98587.94;5072340;28;20325;-75
2020/12/30 08:23:16;;;;;;;;;;;;;;;0.42;100.00;98584.03;5072706;28;19995;-75
2020/12/30 08:25:46;;;;;;;;;;;;;;;0.42;100.00;98579.34;5072468;28;19924;-75
2020/12/30 08:28:13;;;;;;;;;;;;;;;0.41;100.00;98574.22;5054548;28;19924;-75
2020/12/30 08:30:41;;;;;;;;;;;;;;;0.52;100.00;98586.94;5054492;28;19924;-75
2020/12/30 08:33:09;;;;;;;;;;;;;;;0.57;100.00;98588.59;5054696;28;19955;-75
2020/12/30 08:35:38;;;;;;;;;;;;;;;0.58;100.00;98596.47;5072179;28;20284;-75
2020/12/30 08:38:20;;;;;;;;;;;;;;;0.53;100.00;98585.78;5072437;28;19925;-75
2020/12/30 08:40:54;;;;;;;;;;;;;;;0.66;100.00;98600.13;5072349;28;19936;-75
2020/12/30 08:43:21;;;;;;;;;;;;;;;0.79;100.00;98605.03;5075206;28;19924;-76
2020/12/30 08:45:51;;;;;;;;;;;;;;;0.82;100.00;98607.06;5058271;28;19969;-76
2020/12/30 08:48:18;;;;;;;;;;;;;;;0.93;100.00;98623.72;5075970;28;20030;-76
2020/12/30 08:50:46;;;;;;;;;;;;;;;0.89;100.00;98628.38;5057755;28;19931;-83
2020/12/30 08:53:13;;;;;;;;;;;;;;;1.15;100.00;98637.41;5058259;28;19925;-74
2020/12/30 08:55:39;;;;;;;;;;;;;;;1.12;100.00;98629.88;5075782;28;19931;-75
2020/12/30 08:58:06;;;;;;;;;;;;;;;1.16;100.00;98638.19;5075826;28;19987;-74
2020/12/30 09:00:34;;;;;;;;;;;;;;;1.24;100.00;98639.91;5075870;28;20338;-74
2020/12/30 09:03:11;;;;;;;;;;;;;;;1.30;100.00;98650.19;5057697;28;20072;-76
2020/12/30 09:05:37;;;;;;;;;;;;;;;1.36;100.00;98658.94;5075404;28;19924;-75
2020/12/30 09:08:11;;;;;;;;;;;;;;;1.32;100.00;98653.38;5057803;28;20295;-74
2020/12/30 09:10:38;;;;;;;;;;;;;;;1.22;100.00;98656.78;5075660;28;19924;-77
2020/12/30 09:13:18;;;;;;;;;;;;;;;1.38;100.00;98664.84;5071465;28;20444;-75
2020/12/30 09:15:46;;;;;;;;;;;;;;;1.31;100.00;98668.31;5068428;28;20449;-76
2020/12/30 09:18:13;;;;;;;;;;;;;;;1.29;100.00;98665.13;5050765;28;20135;-75
2020/12/30 09:20:40;;;;;;;;;;;;;;;1.29;100.00;98673.38;5068302;28;19924;-75
2020/12/30 09:23:07;;;;;;;;;;;;;;;1.33;100.00;98682.47;5052073;28;19929;-75
2020/12/30 09:25:38;;;;;;;;;;;;;;;1.41;100.00;98677.88;5070799;28;20006;-78
2020/12/30 09:28:18;;;;;;;;;;;;;;;1.44;100.00;98688.94;5070167;28;19928;-77
2020/12/30 09:30:46;;;;;;;;;;;;;;;1.47;100.00;98696.44;5070210;28;19929;-79
2020/12/30 09:33:13;;;;;;;;;;;;;;;1.52;100.00;98704.41;5051450;28;19962;-78
2020/12/30 09:35:40;;;;;;;;;;;;;;;1.50;100.00;98701.22;5070647;28;19931;-77
2020/12/30 09:38:06;;;;;;;;;;;;;;;1.54;100.00;98710.34;5069766;28;19929;-78
2020/12/30 09:40:40;;;;;;;;;;;;;;;1.49;100.00;98707.09;5069179;28;19936;-78
2020/12/30 09:43:08;;;;;;;;;;;;;;;1.70;100.00;98752.25;5052088;28;19924;-78
2020/12/30 09:45:35;;;;;;;;;;;;;;;1.84;100.00;98774.47;5052629;28;19928;-77
2020/12/30 09:48:09;;;;;;;;;;;;;;;1.89;100.00;98781.63;5050714;28;19928;-78
2020/12/30 09:50:36;;;;;;;;;;;;;;;1.88;100.00;98786.34;5069360;28;20334;-78
2020/12/30 09:53:02;;;;;;;;;;;;;;;1.95;100.00;98801.38;5069932;28;19928;-78
2020/12/30 09:55:29;;;;;;;;;;;;;;;1.92;100.00;98807.63;5068698;28;20015;-78
2020/12/30 09:57:55;;;;;;;;;;;;;;;1.85;100.00;98814.63;5069314;28;19928;-78
2020/12/30 10:00:22;;;;;;;;;;;;;;;1.88;100.00;98816.66;5035712;28;19925;-77
2020/12/30 10:02:48;;;;;;;;;;;;;;;1.94;100.00;98827.34;5034174;28;19925;-77
2020/12/30 10:05:15;;;;;;;;;;;;;;;1.78;100.00;98813.75;5069866;28;19924;-78
2020/12/30 10:07:42;;;;;;;;;;;;;;;1.75;100.00;98829.06;5069733;28;20144;-78
2020/12/30 10:10:09;;;;;;;;;;;;;;;1.80;100.00;98831.47;5069426;28;19925;-78
2020/12/30 10:12:38;;;;;;;;;;;;;;;1.78;100.00;98836.56;5069150;28;20436;-78
2020/12/30 10:15:08;;;;;;;;;;;;;;;1.83;100.00;98840.97;5069679;28;19925;-77
2020/12/30 10:17:35;;;;;;;;;;;;;;;1.77;100.00;98843.22;5068750;28;19931;-77
2020/12/30 10:20:02;;;;;;;;;;;;;;;1.86;100.00;98859.53;5069224;28;19975;-77
2020/12/30 10:22:29;;;;;;;;;;;;;;;1.74;100.00;98855.00;5067547;28;20003;-77
2020/12/30 10:24:57;;;;;;;;;;;;;;;1.78;100.00;98853.09;5068950;28;19931;-79
2020/12/30 10:27:24;;;;;;;;;;;;;;;1.73;100.00;98853.41;5069074;28;20398;-78
2020/12/30 10:29:51;;;;;;;;;;;;;;;1.67;100.00;98852.13;5069203;28;20434;-80
2020/12/30 10:32:18;;;;;;;;;;;;;;;1.71;100.00;98852.97;5050267;28;19928;-76
2020/12/30 10:34:45;;;;;;;;;;;;;;;1.71;100.00;98852.97;5069026;28;19925;-79
2020/12/30 10:37:11;;;;;;;;;;;;;;;1.75;100.00;98853.84;5068529;28;20216;-78
2020/12/30 10:39:38;;;;;;;;;;;;;;;1.81;100.00;98852.38;5068446;28;19924;-80
2020/12/30 10:42:05;;;;;;;;;;;;;;;1.75;100.00;98847.53;5052733;28;20137;-78
2020/12/30 10:44:32;;;;;;;;;;;;;;;1.83;100.00;98852.78;5055047;28;19924;-78
2020/12/30 10:46:58;;;;;;;;;;;;;;;1.81;100.00;98852.38;5054289;28;20398;-79
2020/12/30 10:49:26;;;;;;;;;;;;;;;1.82;100.00;98851.19;5073474;28;19924;-78
2020/12/30 10:51:53;;;;;;;;;;;;;;;1.90;100.00;98838.31;5073380;28;19925;-78
2020/12/30 10:54:20;;;;;;;;;;;;;;;1.88;100.00;98838.69;5073452;28;19925;-76
2020/12/30 10:56:47;;;;;;;;;;;;;;;1.77;100.00;98818.44;5073493;28;20015;-78
2020/12/30 10:59:14;;;;;;;;;;;;;;;1.81;100.00;98810.25;5073489;28;19947;-80
2020/12/30 11:01:41;;;;;;;;;;;;;;;1.79;100.00;98805.09;5073112;28;19924;-77
2020/12/30 11:04:08;;;;;;;;;;;;;;;1.73;100.00;98790.06;5073493;28;19929;-77
2020/12/30 11:06:34;;;;;;;;;;;;;;;1.77;100.00;98785.38;5073131;28;19925;-77
2020/12/30 11:09:01;;;;;;;;;;;;;;;1.89;100.00;98787.91;5073203;28;19928;-78
2020/12/30 11:11:28;;;;;;;;;;;;;;;2.01;100.00;98781.41;5055671;28;19929;-78
2020/12/30 11:13:54;;;;;;;;;;;;;;;2.01;100.00;98766.81;5073305;28;19924;-78
2020/12/30 11:16:21;;;;;;;;;;;;;;;2.07;100.00;98757.06;5072868;28;19968;-78
2020/12/30 11:18:47;;;;;;;;;;;;;;;2.02;100.00;98735.31;5055161;28;19974;-78
2020/12/30 11:21:14;;;;;;;;;;;;;;;2.08;100.00;98737.38;5073152;28;19994;-78
2020/12/30 11:23:40;;;;;;;;;;;;;;;2.07;100.00;98729.50;5073172;28;19978;-77
2020/12/30 11:26:08;;;;;;;;;;;;;;;2.01;100.00;98706.19;5073071;28;19955;-77
2020/12/30 11:28:34;;;;;;;;;;;;;;;1.97;100.00;98697.88;5055352;28;19924;-77
2020/12/30 11:31:01;;;;;;;;;;;;;;;2.08;100.00;98698.00;5055044;28;19925;-79
2020/12/30 11:33:28;;;;;;;;;;;;;;;2.16;100.00;98702.44;5072936;28;19931;-79
2020/12/30 11:35:55;;;;;;;;;;;;;;;2.32;100.00;98703.03;5038502;28;19925;-78
2020/12/30 11:38:21;;;;;;;;;;;;;;;2.17;100.00;98680.00;5072959;28;20307;-78
2020/12/30 11:40:48;;;;;;;;;;;;;;;2.24;100.00;98684.81;5073075;28;20380;-77
2020/12/30 11:43:14;;;;;;;;;;;;;;;2.22;100.00;98673.34;5072720;28;19931;-78
2020/12/30 11:45:41;;;;;;;;;;;;;;;2.12;100.00;98657.50;5054724;28;20407;-78
2020/12/30 11:48:07;;;;;;;;;;;;;;;2.11;100.00;98647.63;5072912;28;19978;-77
2020/12/30 11:50:35;;;;;;;;;;;;;;;2.04;100.00;98644.81;5072964;28;20387;-78
2020/12/30 11:53:02;;;;;;;;;;;;;;;1.96;100.00;98632.91;5072963;28;19959;-77
2020/12/30 11:55:29;;;;;;;;;;;;;;;1.95;100.00;98625.84;5072791;28;19994;-78
2020/12/30 11:57:56;;;;;;;;;;;;;;;1.94;100.00;98623.47;5072604;28;19958;-77
2020/12/30 12:00:23;;;;;;;;;;;;;;;2.05;100.00;98621.59;5054846;28;20032;-78
2020/12/30 12:02:49;;;;;;;;;;;;;;;2.09;100.00;98627.94;5072532;28;19924;-79
2020/12/30 12:05:16;;;;;;;;;;;;;;;2.07;100.00;98627.53;5038377;28;19925;-79
2020/12/30 12:07:43;;;;;;;;;;;;;;;2.04;100.00;98620.81;5038356;28;20013;-79
2020/12/30 12:10:10;;;;;;;;;;;;;;;2.00;100.00;98616.44;5072792;28;19947;-79
2020/12/30 12:12:37;;;;;;;;;;;;;;;1.91;100.00;98613.19;5072351;28;19928;-78
2020/12/30 12:15:07;;;;;;;;;;;;;;;1.94;100.00;98621.47;5072584;28;19924;-78
2020/12/30 12:17:34;;;;;;;;;;;;;;;1.97;100.00;98611.69;5074329;28;20287;-79
2020/12/30 12:20:01;;;;;;;;;;;;;;;1.99;100.00;98614.84;5076657;28;19979;-79
2020/12/30 12:22:29;;;;;;;;;;;;;;;1.99;100.00;98617.59;5042016;28;20018;-79
2020/12/30 12:24:56;;;;;;;;;;;;;;;2.04;100.00;98622.78;5076382;28;19929;-79
2020/12/30 12:27:22;;;;;;;;;;;;;;;1.96;100.00;98608.13;5058313;28;19994;-79
2020/12/30 12:29:50;;;;;;;;;;;;;;;1.97;100.00;98611.69;5042135;28;20450;-79
2020/12/30 12:32:16;;;;;;;;;;;;;;;2.01;100.00;98613.31;5058369;28;19925;-79
2020/12/30 12:34:44;;;;;;;;;;;;;;;2.10;100.00;98613.00;5076422;28;19928;-79
2020/12/30 12:37:11;;;;;;;;;;;;;;;2.02;100.00;98612.13;5076578;28;20407;-79
2020/12/30 12:39:38;;;;;;;;;;;;;;;1.98;100.00;98603.03;5076126;28;19924;-79
2020/12/30 12:42:05;;;;;;;;;;;;;;;2.07;100.00;98611.00;5057957;28;20055;-80
2020/12/30 12:44:32;;;;;;;;;;;;;;;2.09;100.00;98611.41;5076052;28;19925;-79
2020/12/30 12:46:59;;;;;;;;;;;;;;;2.11;100.00;98598.03;5058359;28;20372;-80
2020/12/30 12:49:25;;;;;;;;;;;;;;;2.15;100.00;98602.41;5058257;28;19932;-80